GLACIER NATIONAL PARK
GARDEN WALL WX STATION
SHOULOW 8/21/2017
CLICK HERE TO VIEW GRAPH!!!
All data is provisional.
Wind sensor is not heated. Riming can occur.
        DATE  TIME Temp F Wind Speed Wind Dir Wind Gust     BATT  % RH Press InHg
                                                                                  
                       AVG        AVG      AVG       MAX      AVG   AVG        AVG

   8/21/2017 15:00      55          8      170        15    13.90    42      30.26
   8/21/2017 14:00      52          8      161        15    13.97    46      30.27
   8/21/2017 13:00      51          7      166        14    13.23    50      30.26
   8/21/2017 12:00      48          6      157        11    12.82    54      30.25
   8/21/2017 11:00      50          5      170         9    12.86    53      30.25
   8/21/2017 10:00      49          4      164         7    12.65    53      30.25
   8/21/2017 09:00      47          4      144         8    12.46    55      30.24
   8/21/2017 08:00      47          5      128         8    12.37    56      30.22
   8/21/2017 07:00      47          2      109         5    12.34    56      30.22
   8/21/2017 06:00      48          2      104         3    12.35    53      30.21
   8/21/2017 05:00      48          1       93         3    12.37    53      30.20
   8/21/2017 04:00      49          2      133         6    12.39    52      30.20
   8/21/2017 03:00      49          4      145         8    12.43    52      30.20
   8/21/2017 02:00      49          2      170         7    12.46    51      30.20
   8/21/2017 01:00      50          3      177         9    12.49    49      30.19
   8/20/2017 24:00      50          4      209         9    12.52    47      30.19
   8/20/2017 23:00      51          4      222        14    12.55    45      30.18
   8/20/2017 22:00      52          7      223        14    12.63    42      30.17
   8/20/2017 21:00      52          6      210        16    12.91    41      30.16
   8/20/2017 20:00      53          9      182        22    13.30    38      30.15
   8/20/2017 19:00      56         10      187        19    13.30    35      30.14
   8/20/2017 18:00      54         12      192        23    13.56    37      30.14
   8/20/2017 17:00      54         15      176        28    13.54    36      30.13
   8/20/2017 16:00      55         13      178        22    13.46    37      30.13
   8/20/2017 15:00      51         10      173        16    13.79    42      30.14
   8/20/2017 14:00      50         10      181        17    14.02    42      30.14
   8/20/2017 13:00      48          9      176        15    14.01    47      30.15
   8/20/2017 12:00      47          7      166        13    13.54    48      30.15
   8/20/2017 11:00      46          9      157        15    13.08    46      30.15
   8/20/2017 10:00      45          9      158        14    12.68    52      30.14
   8/20/2017 09:00      43          6      156        12    12.49    57      30.13
   8/20/2017 08:00      43          7      136        17    12.38    56      30.13
   8/20/2017 07:00      44          6      135        12    12.35    54      30.12
   8/20/2017 06:00      44          6      130        13    12.36    52      30.12
   8/20/2017 05:00      45          5      152        13    12.39    53      30.12
   8/20/2017 04:00      45          6      158        14    12.42    52      30.12
   8/20/2017 03:00      46          6      161        12    12.45    51      30.12
   8/20/2017 02:00      47          4      169        12    12.47    52      30.12
   8/20/2017 01:00      47          4      190        12    12.50    52      30.13
   8/19/2017 24:00      48          4      235        13    12.53    51      30.13
   8/19/2017 23:00      50          7      258        15    12.58    49      30.13
   8/19/2017 22:00      51          7      248        16    12.76    45      30.13
   8/19/2017 21:00      52          6      225        16    13.34    41      30.13
   8/19/2017 20:00      53          7      210        17    13.59    38      30.10
   8/19/2017 19:00      54         11      179        20    13.65    36      30.10
   8/19/2017 18:00      55         14      174        26    13.61    35      30.10
   8/19/2017 17:00      55         14      180        24    13.59    35      30.10
   8/19/2017 16:00      57         16      176        28    13.78    35      30.10


CLICK HERE TO VIEW GRAPH!!!